Time;durP1;ratioP1;P1;durP2;ratioP2;P2;SDS_P1;SDS_P2;PMS_P1;PMS_P2;Temp;Humidity;BMP_temperature;BMP_pressure;BME280_temperature;BME280_humidity;BME280_pressure;Samples;Min_cycle;Max_cycle;Signal;HPM_P1;HPM_P2
2023/06/27 00:00:34;;;;;;;8.88;4.32;;;17.70;99.90;;;;;;4128007;28;20082;-63
2023/06/27 00:02:35;;;;;;;7.82;4.47;;;17.60;99.90;;;;;;4127163;28;20043;-63
2023/06/27 00:04:36;;;;;;;4.70;3.63;;;17.60;99.90;;;;;;4126727;28;20446;-62
2023/06/27 00:06:40;;;;;;;9.27;4.30;;;17.60;99.90;;;;;;4126781;28;20042;-63
2023/06/27 00:08:42;;;;;;;7.38;4.05;;;17.60;99.90;;;;;;4128290;28;20446;-63
2023/06/27 00:10:43;;;;;;;11.15;4.10;;;17.60;99.90;;;;;;4126007;28;20068;-62
2023/06/27 00:12:44;;;;;;;7.00;4.15;;;17.60;99.90;;;;;;4127489;28;20050;-63
2023/06/27 00:14:45;;;;;;;7.93;3.97;;;17.50;99.90;;;;;;4126820;28;20042;-63
2023/06/27 00:16:47;;;;;;;5.88;3.97;;;17.50;99.90;;;;;;4128180;28;20034;-61
2023/06/27 00:18:48;;;;;;;5.85;3.70;;;17.50;99.90;;;;;;4126828;28;20030;-62
2023/06/27 00:20:50;;;;;;;5.57;4.07;;;17.50;99.90;;;;;;4128047;28;20084;-62
2023/06/27 00:22:52;;;;;;;5.45;4.43;;;17.40;99.90;;;;;;4127098;28;20406;-63
2023/06/27 00:24:53;;;;;;;7.00;4.10;;;17.40;99.90;;;;;;4127798;28;20537;-62
2023/06/27 00:26:55;;;;;;;5.53;3.97;;;17.40;99.90;;;;;;4127509;28;20038;-63
2023/06/27 00:28:56;;;;;;;5.18;4.05;;;17.40;99.90;;;;;;4127604;28;20038;-62
2023/06/27 00:30:57;;;;;;;6.07;3.83;;;17.40;99.90;;;;;;4128078;28;20034;-61
2023/06/27 00:32:58;;;;;;;5.72;3.78;;;17.30;99.90;;;;;;4127245;28;20057;-61
2023/06/27 00:34:59;;;;;;;5.00;3.95;;;17.30;99.90;;;;;;4128250;28;20031;-61
2023/06/27 00:37:00;;;;;;;4.93;3.75;;;17.30;99.90;;;;;;4126867;28;20093;-61
2023/06/27 00:39:02;;;;;;;5.20;3.97;;;17.30;99.90;;;;;;4128389;28;20035;-61
2023/06/27 00:41:03;;;;;;;7.78;4.40;;;17.20;99.90;;;;;;4127045;28;20043;-61
2023/06/27 00:43:04;;;;;;;10.65;4.20;;;17.20;99.90;;;;;;4128409;28;20096;-61
2023/06/27 00:45:07;;;;;;;4.95;3.78;;;17.20;99.90;;;;;;4127281;28;20038;-61
2023/06/27 00:47:08;;;;;;;7.40;3.95;;;17.20;99.90;;;;;;4128407;28;20567;-60
2023/06/27 00:49:11;;;;;;;6.93;4.47;;;17.10;99.90;;;;;;4126610;28;20038;-61
2023/06/27 00:51:12;;;;;;;6.35;3.88;;;17.10;99.90;;;;;;4128103;28;20046;-60
2023/06/27 00:53:14;;;;;;;5.32;4.18;;;17.10;99.90;;;;;;4127074;28;20510;-61
2023/06/27 00:55:17;;;;;;;7.72;4.65;;;17.10;99.90;;;;;;4125922;28;20116;-60
2023/06/27 00:57:18;;;;;;;8.07;3.80;;;17.10;99.90;;;;;;4126618;28;20018;-61
2023/06/27 00:59:20;;;;;;;6.18;3.97;;;17.20;99.90;;;;;;4127670;28;20089;-61
2023/06/27 01:01:21;;;;;;;6.03;3.88;;;17.20;99.90;;;;;;4127365;28;20112;-60
2023/06/27 01:03:22;;;;;;;6.53;3.88;;;17.10;99.90;;;;;;4127335;28;20545;-62
2023/06/27 01:05:24;;;;;;;10.32;4.05;;;17.10;99.90;;;;;;4127992;28;20085;-61
2023/06/27 01:07:45;;;;;;;6.35;4.15;;;17.10;99.90;;;;;;4127161;28;20454;-60
2023/06/27 01:09:50;;;;;;;4.93;4.00;;;17.10;99.90;;;;;;4128049;28;20423;-61
2023/06/27 01:12:04;;;;;;;5.70;3.63;;;17.10;99.90;;;;;;4126863;28;20031;-61
2023/06/27 01:14:06;;;;;;;5.97;3.80;;;17.10;99.90;;;;;;4127846;28;20061;-62
2023/06/27 01:16:09;;;;;;;6.55;4.13;;;17.10;99.90;;;;;;4126830;28;20038;-61
2023/06/27 01:18:12;;;;;;;6.40;4.97;;;17.10;99.90;;;;;;4127856;28;20249;-61
2023/06/27 01:20:13;;;;;;;8.93;4.20;;;17.10;99.90;;;;;;4126955;28;20022;-62
2023/06/27 01:22:29;;;;;;;6.20;4.00;;;17.10;99.90;;;;;;4129800;28;20097;-63
2023/06/27 01:24:31;;;;;;;7.30;4.40;;;17.10;99.90;;;;;;4129485;28;20108;-62
2023/06/27 01:26:32;;;;;;;11.05;4.60;;;17.10;99.90;;;;;;4130725;28;20399;-60
2023/06/27 01:28:36;;;;;;;9.82;3.85;;;17.10;99.90;;;;;;4130187;28;20046;-61
2023/06/27 01:30:37;;;;;;;9.23;3.83;;;17.10;99.90;;;;;;4130865;28;20521;-61
2023/06/27 01:32:46;;;;;;;7.05;3.58;;;17.10;99.90;;;;;;4129477;28;20093;-61
2023/06/27 01:35:07;;;;;;;5.13;3.58;;;17.10;99.90;;;;;;4130180;28;20054;-60
2023/06/27 01:37:19;;;;;;;5.03;4.05;;;17.00;99.90;;;;;;4129492;28;20438;-61
2023/06/27 01:39:37;;;;;;;7.65;3.85;;;17.00;99.90;;;;;;4130162;28;20450;-62
2023/06/27 01:41:42;;;;;;;4.75;3.58;;;17.00;99.90;;;;;;4129261;28;20403;-61
2023/06/27 01:43:44;;;;;;;6.15;4.53;;;16.90;99.90;;;;;;4130644;28;20038;-61
2023/06/27 01:45:46;;;;;;;6.47;4.40;;;16.90;99.90;;;;;;4129198;28;20502;-62
2023/06/27 01:47:47;;;;;;;6.20;4.07;;;16.90;99.90;;;;;;4130577;28;20030;-61
2023/06/27 01:49:48;;;;;;;5.65;4.18;;;16.90;99.90;;;;;;4129070;28;20081;-61
2023/06/27 01:51:49;;;;;;;4.78;3.85;;;16.90;99.90;;;;;;4130518;28;20030;-61
2023/06/27 01:53:50;;;;;;;6.53;3.72;;;16.90;99.90;;;;;;4128898;28;20447;-61
2023/06/27 01:55:52;;;;;;;8.10;4.95;;;16.80;99.90;;;;;;4130293;28;20038;-61
2023/06/27 01:57:53;;;;;;;7.75;4.20;;;16.80;99.90;;;;;;4129631;28;20077;-61
2023/06/27 01:59:54;;;;;;;6.20;4.13;;;16.80;99.90;;;;;;4128992;28;20034;-62
2023/06/27 02:01:55;;;;;;;6.07;4.07;;;16.80;99.90;;;;;;4129441;28;20069;-62
2023/06/27 02:03:57;;;;;;;8.25;4.22;;;16.80;99.90;;;;;;4129216;28;20081;-62
2023/06/27 02:05:58;;;;;;;6.40;4.18;;;16.80;99.90;;;;;;4130038;28;20471;-61
2023/06/27 02:07:59;;;;;;;5.30;3.65;;;16.80;99.90;;;;;;4129256;28;20097;-61
2023/06/27 02:10:00;;;;;;;5.57;3.88;;;16.70;99.90;;;;;;4129932;28;20046;-61
2023/06/27 02:12:04;;;;;;;6.70;3.80;;;16.70;99.90;;;;;;4128580;28;20486;-61
2023/06/27 02:14:05;;;;;;;7.13;3.97;;;16.70;99.90;;;;;;4130170;28;20092;-61
2023/06/27 02:16:06;;;;;;;10.05;4.10;;;16.70;99.90;;;;;;4129112;28;20491;-61
2023/06/27 02:18:07;;;;;;;7.00;4.40;;;16.70;99.90;;;;;;4129857;28;20050;-61
2023/06/27 02:20:08;;;;;;;5.85;4.15;;;16.70;99.90;;;;;;4128837;28;20461;-63
2023/06/27 02:22:10;;;;;;;7.20;4.20;;;16.70;99.90;;;;;;4130170;28;20430;-62
2023/06/27 02:24:11;;;;;;;6.13;4.88;;;16.70;99.90;;;;;;4128712;28;20038;-62
2023/06/27 02:26:12;;;;;;;6.95;3.83;;;16.70;99.90;;;;;;4129514;28;20458;-62
2023/06/27 02:28:13;;;;;;;5.90;4.43;;;16.70;99.90;;;;;;4113264;28;20344;-62
2023/06/27 02:30:14;;;;;;;6.43;3.75;;;16.70;99.90;;;;;;4128598;28;20305;-62
2023/06/27 02:32:15;;;;;;;7.85;4.18;;;16.70;99.90;;;;;;4129028;28;20545;-61
2023/06/27 02:34:16;;;;;;;6.68;5.05;;;16.70;99.90;;;;;;4127868;28;20373;-63
2023/06/27 02:36:17;;;;;;;4.90;3.95;;;16.60;99.90;;;;;;4129553;28;20081;-65
2023/06/27 02:38:19;;;;;;;5.18;3.85;;;16.70;99.90;;;;;;4128578;28;20545;-62
2023/06/27 02:40:20;;;;;;;6.30;3.90;;;16.70;99.90;;;;;;4129622;28;20077;-62
2023/06/27 02:42:21;;;;;;;6.63;3.88;;;16.70;99.90;;;;;;4128493;28;20026;-61
2023/06/27 02:44:22;;;;;;;6.43;4.10;;;16.70;99.90;;;;;;4129748;28;20043;-62
2023/06/27 02:46:23;;;;;;;6.55;3.58;;;16.70;99.90;;;;;;4128401;28;20118;-63
2023/06/27 02:48:24;;;;;;;5.93;4.10;;;16.80;99.90;;;;;;4129485;28;20088;-61
2023/06/27 02:50:25;;;;;;;5.85;3.90;;;16.90;99.90;;;;;;4128145;28;20407;-62
2023/06/27 02:52:27;;;;;;;8.10;4.45;;;16.90;99.90;;;;;;4129664;28;20089;-62
2023/06/27 02:54:28;;;;;;;7.32;4.90;;;17.00;99.90;;;;;;4127784;28;20498;-62
2023/06/27 02:56:29;;;;;;;9.15;4.40;;;17.10;99.90;;;;;;4129264;28;20030;-61
2023/06/27 02:58:30;;;;;;;6.57;4.45;;;17.20;99.90;;;;;;4128900;28;20022;-63
2023/06/27 03:00:32;;;;;;;7.40;4.00;;;17.40;99.90;;;;;;4128821;28;20434;-61
2023/06/27 03:02:33;;;;;;;7.63;4.00;;;17.50;99.90;;;;;;4128379;28;20088;-61
2023/06/27 03:04:36;;;;;;;8.48;3.90;;;17.70;99.90;;;;;;4127314;28;20026;-61
2023/06/27 03:06:37;;;;;;;7.55;4.72;;;17.80;99.90;;;;;;4129060;28;20093;-61
2023/06/27 03:08:38;;;;;;;5.97;4.35;;;17.90;99.90;;;;;;4128142;28;20083;-60
2023/06/27 03:10:39;;;;;;;6.72;3.95;;;18.10;99.90;;;;;;4129125;28;20546;-62
2023/06/27 03:12:41;;;;;;;5.25;3.78;;;18.20;99.90;;;;;;4126603;28;20569;-61
2023/06/27 03:14:42;;;;;;;7.30;4.65;;;18.40;99.90;;;;;;4129133;28;20034;-61
2023/06/27 03:16:43;;;;;;;6.10;4.30;;;18.60;99.90;;;;;;4127895;28;20488;-61
2023/06/27 03:18:44;;;;;;;7.60;5.18;;;18.80;99.90;;;;;;4129014;28;20093;-63
2023/06/27 03:20:46;;;;;;;16.05;10.13;;;19.10;99.90;;;;;;4127678;28;20442;-62
2023/06/27 03:22:47;;;;;;;7.07;5.75;;;19.40;99.90;;;;;;4129086;28;20438;-62
2023/06/27 03:24:48;;;;;;;5.07;3.90;;;19.70;99.90;;;;;;4127253;28;20422;-61
2023/06/27 03:26:49;;;;;;;9.35;4.00;;;20.10;99.90;;;;;;4127919;28;20487;-62
2023/06/27 03:28:50;;;;;;;5.32;3.78;;;20.40;99.90;;;;;;4131097;28;20474;-62
2023/06/27 03:30:51;;;;;;;7.97;4.53;;;20.70;99.90;;;;;;4128084;28;20038;-63
2023/06/27 03:32:53;;;;;;;5.80;3.67;;;20.90;99.90;;;;;;4127055;28;20089;-62
2023/06/27 03:34:54;;;;;;;5.90;3.42;;;21.10;99.90;;;;;;4127680;28;20557;-61
2023/06/27 03:36:55;;;;;;;6.18;3.92;;;21.10;99.90;;;;;;4127997;28;20065;-63
2023/06/27 03:38:56;;;;;;;8.80;3.75;;;20.90;99.90;;;;;;4125880;28;20034;-61
2023/06/27 03:40:57;;;;;;;4.85;3.63;;;21.00;99.90;;;;;;4128480;28;20042;-61
2023/06/27 03:43:00;;;;;;;7.97;4.15;;;21.30;99.90;;;;;;4127563;28;20034;-60
2023/06/27 03:45:02;;;;;;;7.32;4.20;;;21.70;99.90;;;;;;4128184;28;20161;-61
2023/06/27 03:47:04;;;;;;;5.85;4.05;;;22.10;99.90;;;;;;4125545;28;20112;-61
2023/06/27 03:49:06;;;;;;;5.22;3.78;;;22.30;99.90;;;;;;4128353;28;20022;-61
2023/06/27 03:51:07;;;;;;;5.55;3.60;;;22.70;99.90;;;;;;4130094;28;20085;-61
2023/06/27 03:53:08;;;;;;;6.53;3.63;;;23.10;99.90;;;;;;4132019;28;20081;-62
2023/06/27 03:55:11;;;;;;;6.53;3.42;;;23.30;99.90;;;;;;4126948;28;20034;-61
2023/06/27 03:57:12;;;;;;;3.90;3.17;;;23.60;99.90;;;;;;4128186;28;20521;-61
2023/06/27 03:59:13;;;;;;;5.18;3.53;;;24.10;99.90;;;;;;4126917;28;20069;-60
2023/06/27 04:01:14;;;;;;;4.90;3.50;;;24.40;99.90;;;;;;4136790;28;20446;-63
2023/06/27 04:03:17;;;;;;;5.22;3.45;;;24.70;99.90;;;;;;4143596;28;20474;-63
2023/06/27 04:05:19;;;;;;;3.35;3.03;;;25.00;99.90;;;;;;4113727;28;20031;-61
2023/06/27 04:07:20;;;;;;;7.15;3.53;;;25.40;99.90;;;;;;4122542;28;20022;-62
2023/06/27 04:09:21;;;;;;;5.32;3.15;;;25.70;99.90;;;;;;4126884;28;20050;-60
2023/06/27 04:11:22;;;;;;;3.90;3.20;;;25.90;99.90;;;;;;4128192;28;20030;-61
2023/06/27 04:13:23;;;;;;;6.93;3.28;;;26.40;99.90;;;;;;4127062;28;20050;-62
2023/06/27 04:15:24;;;;;;;4.82;3.60;;;26.70;99.90;;;;;;4128406;28;20105;-63
2023/06/27 04:17:25;;;;;;;7.03;3.10;;;26.90;99.70;;;;;;4126748;28;20105;-61
2023/06/27 04:19:27;;;;;;;4.72;2.90;;;27.10;99.20;;;;;;4127551;28;20046;-61
2023/06/27 04:21:28;;;;;;;4.75;3.78;;;27.50;98.80;;;;;;4126695;28;20042;-61
2023/06/27 04:23:29;;;;;;;3.83;3.20;;;27.90;98.00;;;;;;4127730;28;20538;-61
2023/06/27 04:25:32;;;;;;;5.82;3.58;;;28.10;97.30;;;;;;4127330;28;20054;-62
2023/06/27 04:27:34;;;;;;;5.47;3.15;;;28.30;96.90;;;;;;4127569;28;20034;-62
2023/06/27 04:29:36;;;;;;;4.70;3.15;;;28.30;96.40;;;;;;4127277;28;20368;-62
2023/06/27 04:31:37;;;;;;;6.20;3.78;;;28.50;96.00;;;;;;4127858;28;20034;-61
2023/06/27 04:33:39;;;;;;;5.53;3.20;;;28.20;95.60;;;;;;4126951;28;20430;-62
2023/06/27 04:35:40;;;;;;;5.32;3.40;;;28.20;95.40;;;;;;4127659;28;20093;-63
2023/06/27 04:37:41;;;;;;;4.75;3.40;;;28.50;95.20;;;;;;4127672;28;20411;-61
2023/06/27 04:39:42;;;;;;;6.07;3.00;;;28.80;94.70;;;;;;4127387;28;20038;-61
2023/06/27 04:41:45;;;;;;;5.45;3.08;;;29.20;94.20;;;;;;4128144;28;20042;-62
2023/06/27 04:43:46;;;;;;;4.50;3.15;;;29.70;93.70;;;;;;4127041;28;20105;-61
2023/06/27 04:45:47;;;;;;;5.00;2.90;;;29.70;93.20;;;;;;4128010;28;20030;-61
2023/06/27 04:47:48;;;;;;;3.10;2.90;;;29.90;92.90;;;;;;4126800;28;20041;-61
2023/06/27 04:49:49;;;;;;;3.95;2.80;;;30.00;92.60;;;;;;4127719;28;20141;-61
2023/06/27 04:51:50;;;;;;;4.35;3.22;;;30.20;92.10;;;;;;4126774;28;20113;-61
2023/06/27 04:53:51;;;;;;;4.15;2.88;;;30.40;91.70;;;;;;4127752;28;20112;-60
2023/06/27 04:55:53;;;;;;;6.43;3.35;;;30.50;91.30;;;;;;4126855;28;20387;-61
2023/06/27 04:57:54;;;;;;;6.63;2.90;;;30.70;91.00;;;;;;4130902;28;20085;-62
2023/06/27 04:59:55;;;;;;;3.70;2.72;;;30.80;90.70;;;;;;4130417;28;20364;-61
2023/06/27 05:01:57;;;;;;;5.07;3.28;;;30.90;90.30;;;;;;4130677;28;20096;-62
2023/06/27 05:04:04;;;;;;;7.43;3.40;;;30.70;90.10;;;;;;4129966;28;20371;-61
2023/06/27 05:06:05;;;;;;;5.80;3.05;;;30.90;90.00;;;;;;4129917;28;20050;-61
2023/06/27 05:08:07;;;;;;;7.13;3.03;;;31.10;89.70;;;;;;4130197;28;20030;-61
2023/06/27 05:10:08;;;;;;;6.03;3.17;;;31.30;89.20;;;;;;4129732;28;20081;-61
2023/06/27 05:12:09;;;;;;;6.53;3.45;;;31.60;88.90;;;;;;4130672;28;20097;-62
2023/06/27 05:14:10;;;;;;;8.43;3.42;;;31.60;87.30;;;;;;4129972;28;20116;-61
2023/06/27 05:16:11;;;;;;;5.18;3.03;;;31.60;86.60;;;;;;4130713;28;20085;-61
2023/06/27 05:18:14;;;;;;;6.78;3.10;;;31.80;86.20;;;;;;4129512;28;20561;-61
2023/06/27 05:20:15;;;;;;;3.33;2.60;;;31.90;85.60;;;;;;4130691;28;20467;-62
2023/06/27 05:22:16;;;;;;;6.63;2.60;;;32.00;85.00;;;;;;4129553;28;20085;-61
2023/06/27 05:24:17;;;;;;;3.88;2.95;;;32.20;84.40;;;;;;4130786;28;20386;-61
2023/06/27 05:26:18;;;;;;;5.88;2.80;;;32.40;83.60;;;;;;4129522;28;20463;-60
2023/06/27 05:28:19;;;;;;;5.03;3.47;;;32.40;83.30;;;;;;4130540;28;20026;-62
2023/06/27 05:30:20;;;;;;;4.22;2.60;;;32.40;82.70;;;;;;4128785;28;20112;-62
2023/06/27 05:32:22;;;;;;;6.55;2.95;;;32.40;82.30;;;;;;4130367;28;20104;-62
2023/06/27 05:34:25;;;;;;;7.47;3.53;;;32.20;82.80;;;;;;4129129;28;20054;-62
2023/06/27 05:36:26;;;;;;;5.38;3.95;;;32.40;81.80;;;;;;4130056;28;20081;-61
2023/06/27 05:38:27;;;;;;;4.22;3.80;;;32.30;81.30;;;;;;4129701;28;20042;-61
2023/06/27 05:40:29;;;;;;;3.33;2.63;;;32.30;81.00;;;;;;4129827;28;20434;-61
2023/06/27 05:42:30;;;;;;;3.58;2.67;;;32.50;80.70;;;;;;4129874;28;20015;-62
2023/06/27 05:44:31;;;;;;;3.33;2.85;;;32.50;80.00;;;;;;4129273;28;20108;-61
2023/06/27 05:46:38;;;;;;;5.00;2.85;;;32.50;79.70;;;;;;4129923;28;20039;-62
2023/06/27 05:48:40;;;;;;;2.97;2.60;;;32.40;79.50;;;;;;4128967;28;20065;-61
2023/06/27 05:50:41;;;;;;;6.47;3.03;;;32.40;79.70;;;;;;4129778;28;20038;-62
2023/06/27 05:52:42;;;;;;;7.15;3.72;;;32.70;79.30;;;;;;4128814;28;20046;-61
2023/06/27 05:54:43;;;;;;;9.13;2.90;;;32.60;78.80;;;;;;4129227;28;20046;-61
2023/06/27 05:56:44;;;;;;;3.97;2.85;;;32.30;78.70;;;;;;4128933;28;20065;-60
2023/06/27 05:58:46;;;;;;;5.30;3.10;;;32.20;78.90;;;;;;4130156;28;20034;-61
2023/06/27 06:00:47;;;;;;;3.63;2.63;;;32.60;78.50;;;;;;4128730;28;20101;-61
2023/06/27 06:02:48;;;;;;;4.68;3.33;;;32.90;77.70;;;;;;4130006;28;20034;-70
2023/06/27 06:04:49;;;;;;;5.38;3.50;;;32.40;78.00;;;;;;4128877;28;20026;-61
2023/06/27 06:06:50;;;;;;;6.35;2.88;;;31.50;79.60;;;;;;4129701;28;20038;-62
2023/06/27 06:08:51;;;;;;;3.97;3.08;;;30.90;80.50;;;;;;4127813;28;20181;-60
2023/06/27 06:10:53;;;;;;;4.47;3.75;;;30.20;81.50;;;;;;4129306;28;20030;-61
2023/06/27 06:12:54;;;;;;;7.72;3.33;;;29.50;82.50;;;;;;4129192;28;20077;-61
2023/06/27 06:14:55;;;;;;;4.43;3.38;;;29.00;83.40;;;;;;4129132;28;20047;-59
2023/06/27 06:16:56;;;;;;;4.20;3.22;;;28.70;84.10;;;;;;4129394;28;20042;-61
2023/06/27 06:18:57;;;;;;;3.95;2.88;;;28.60;85.20;;;;;;4128600;28;20483;-59
2023/06/27 06:20:58;;;;;;;5.32;3.50;;;29.30;84.90;;;;;;4129475;28;20450;-60
2023/06/27 06:23:00;;;;;;;3.97;3.05;;;29.70;84.30;;;;;;4128562;28;20034;-60
2023/06/27 06:25:01;;;;;;;4.85;3.08;;;30.20;83.60;;;;;;4129618;28;20100;-60
2023/06/27 06:27:02;;;;;;;7.22;3.83;;;30.20;82.90;;;;;;4128400;28;20034;-60
2023/06/27 06:29:04;;;;;;;6.93;2.90;;;29.90;83.30;;;;;;4129045;28;20046;-61
2023/06/27 06:31:06;;;;;;;5.22;2.85;;;29.50;84.30;;;;;;4128143;28;20542;-59
2023/06/27 06:33:07;;;;;;;9.00;2.90;;;29.20;85.20;;;;;;4127184;28;20442;-59
2023/06/27 06:35:08;;;;;;;5.78;3.28;;;28.90;85.60;;;;;;4127509;28;20050;-61
2023/06/27 06:37:09;;;;;;;6.32;3.45;;;29.10;86.00;;;;;;4129085;28;20411;-60
2023/06/27 06:39:10;;;;;;;13.50;3.38;;;29.30;85.60;;;;;;4128389;28;20450;-60
2023/06/27 06:41:13;;;;;;;8.75;3.30;;;29.30;85.30;;;;;;4128710;28;20100;-60
2023/06/27 06:43:15;;;;;;;5.88;3.60;;;29.60;85.00;;;;;;4128502;28;20093;-60
2023/06/27 06:45:16;;;;;;;6.35;3.17;;;30.10;84.70;;;;;;4127959;28;20118;-60
2023/06/27 06:47:18;;;;;;;7.13;3.67;;;30.70;84.10;;;;;;4128663;28;20140;-60
2023/06/27 06:49:19;;;;;;;5.15;3.35;;;30.50;83.80;;;;;;4128044;28;20042;-60
2023/06/27 06:51:22;;;;;;;6.65;3.20;;;30.20;84.30;;;;;;4129250;28;20065;-61
2023/06/27 06:53:24;;;;;;;5.60;3.10;;;29.90;84.90;;;;;;4127596;28;20097;-61
2023/06/27 06:55:25;;;;;;;7.60;3.40;;;29.90;85.70;;;;;;4129020;28;20085;-61
2023/06/27 06:57:26;;;;;;;9.70;3.50;;;30.10;85.60;;;;;;4127960;28;20018;-60
2023/06/27 06:59:27;;;;;;;4.00;3.17;;;30.10;85.50;;;;;;4128997;28;20089;-61
2023/06/27 07:01:28;;;;;;;7.22;3.13;;;30.20;85.50;;;;;;4127760;28;20088;-61
2023/06/27 07:03:31;;;;;;;15.15;3.97;;;30.50;85.00;;;;;;4128715;28;20050;-64
2023/06/27 07:05:32;;;;;;;8.07;3.60;;;30.70;84.30;;;;;;4127803;28;20064;-62
2023/06/27 07:07:33;;;;;;;7.88;3.58;;;30.30;83.70;;;;;;4128896;28;20541;-61
2023/06/27 07:09:34;;;;;;;7.95;4.03;;;29.60;84.00;;;;;;4127628;28;20034;-61
2023/06/27 07:11:35;;;;;;;5.80;3.38;;;29.20;85.00;;;;;;4128261;28;20038;-61
2023/06/27 07:13:36;;;;;;;11.43;4.10;;;29.10;85.30;;;;;;4128183;28;20072;-62
2023/06/27 07:15:37;;;;;;;5.03;3.42;;;29.30;85.20;;;;;;4128022;28;20053;-61
2023/06/27 07:17:39;;;;;;;9.32;3.33;;;29.30;85.20;;;;;;4128368;28;20031;-61
2023/06/27 07:19:42;;;;;;;8.23;3.75;;;29.00;85.10;;;;;;4126880;28;20034;-61
2023/06/27 07:21:43;;;;;;;6.30;4.00;;;28.60;85.10;;;;;;4128752;28;20030;-61
2023/06/27 07:23:44;;;;;;;8.10;3.45;;;28.20;85.90;;;;;;4127339;28;20073;-61
2023/06/27 07:25:45;;;;;;;7.32;3.40;;;28.00;86.70;;;;;;4128588;28;20438;-62
2023/06/27 07:27:47;;;;;;;11.02;3.65;;;27.90;86.90;;;;;;4127313;28;20038;-61
2023/06/27 07:29:48;;;;;;;7.38;4.00;;;27.60;86.20;;;;;;4128339;28;20042;-62
2023/06/27 07:31:49;;;;;;;12.25;4.07;;;27.40;86.60;;;;;;4127269;28;20447;-61
2023/06/27 07:33:50;;;;;;;4.88;3.67;;;27.80;86.40;;;;;;4128275;28;20124;-62
2023/06/27 07:35:51;;;;;;;9.38;4.15;;;28.00;85.90;;;;;;4127060;28;20112;-60
2023/06/27 07:37:52;;;;;;;8.70;3.80;;;27.90;86.70;;;;;;4128220;28;20038;-62
2023/06/27 07:39:54;;;;;;;7.30;3.65;;;27.90;86.90;;;;;;4127424;28;20030;-62
2023/06/27 07:41:55;;;;;;;6.20;3.60;;;27.80;87.40;;;;;;4127852;28;20101;-61
2023/06/27 07:43:56;;;;;;;10.13;3.83;;;27.70;87.10;;;;;;4127528;28;20026;-62
2023/06/27 07:45:57;;;;;;;10.18;4.50;;;27.50;87.20;;;;;;4127642;28;20481;-62
2023/06/27 07:47:58;;;;;;;14.73;5.75;;;27.50;87.40;;;;;;4127975;28;20097;-61
2023/06/27 07:49:59;;;;;;;13.60;4.43;;;27.50;87.50;;;;;;4127027;28;20077;-60
2023/06/27 07:52:01;;;;;;;14.40;4.50;;;27.50;87.90;;;;;;4128048;28;20545;-61
2023/06/27 07:54:02;;;;;;;7.93;4.28;;;27.60;87.70;;;;;;4126939;28;20038;-60
2023/06/27 07:56:04;;;;;;;12.73;4.07;;;27.60;87.80;;;;;;4128300;28;20038;-61
2023/06/27 07:58:05;;;;;;;17.40;5.30;;;27.80;87.50;;;;;;4127114;28;20116;-60
2023/06/27 08:00:08;;;;;;;18.20;5.65;;;27.40;87.60;;;;;;4128228;28;20085;-61
2023/06/27 08:02:09;;;;;;;19.48;5.35;;;27.40;88.10;;;;;;4126893;28;20439;-61
2023/06/27 08:04:10;;;;;;;16.85;3.92;;;27.70;88.30;;;;;;4128032;28;20085;-61
2023/06/27 08:06:11;;;;;;;9.40;4.07;;;28.40;87.50;;;;;;4127093;28;20097;-61
2023/06/27 08:08:12;;;;;;;14.20;3.72;;;28.90;86.50;;;;;;4128298;28;20022;-61
2023/06/27 08:10:13;;;;;;;5.63;3.80;;;29.20;85.60;;;;;;4127000;28;20034;-61
2023/06/27 08:12:14;;;;;;;6.05;2.70;;;29.00;84.50;;;;;;4127828;28;20022;-63
2023/06/27 08:14:16;;;;;;;3.15;2.85;;;29.00;84.40;;;;;;4127483;28;20089;-62
2023/06/27 08:16:17;;;;;;;4.03;2.58;;;29.30;83.40;;;;;;4127447;28;20455;-61
2023/06/27 08:18:18;;;;;;;3.78;2.90;;;29.40;82.80;;;;;;4127594;28;20507;-60
2023/06/27 08:20:19;;;;;;;9.98;4.38;;;29.40;82.70;;;;;;4127134;28;20046;-61
2023/06/27 08:22:20;;;;;;;7.45;4.00;;;29.10;82.60;;;;;;4127883;28;20047;-61
2023/06/27 08:24:21;;;;;;;5.50;3.40;;;28.90;83.40;;;;;;4126788;28;20034;-62
2023/06/27 08:26:23;;;;;;;5.85;3.85;;;28.60;83.80;;;;;;4127910;28;20110;-60
2023/06/27 08:28:24;;;;;;;3.83;3.08;;;28.60;84.00;;;;;;4126896;28;20106;-62
2023/06/27 08:30:27;;;;;;;3.80;3.50;;;28.80;84.20;;;;;;4128053;28;20420;-60
2023/06/27 08:32:28;;;;;;;4.05;3.20;;;29.00;83.50;;;;;;4128814;28;20042;-60
2023/06/27 08:34:31;;;;;;;4.35;3.70;;;29.40;83.00;;;;;;4131317;28;20042;-61
2023/06/27 08:36:33;;;;;;;4.35;3.28;;;29.50;82.20;;;;;;4130394;28;20073;-60
2023/06/27 08:38:34;;;;;;;10.20;4.30;;;29.50;82.20;;;;;;4131604;28;20026;-60
2023/06/27 08:40:36;;;;;;;5.22;3.58;;;29.10;83.10;;;;;;4130265;28;20034;-61
2023/06/27 08:42:38;;;;;;;9.07;3.28;;;28.30;83.80;;;;;;4131093;28;20088;-61
2023/06/27 08:44:39;;;;;;;12.85;4.80;;;27.90;84.90;;;;;;4129871;28;20438;-62
2023/06/27 08:46:42;;;;;;;4.70;3.50;;;28.00;85.20;;;;;;4130755;28;20093;-61
2023/06/27 08:48:45;;;;;;;41.78;9.18;;;28.20;85.30;;;;;;4130283;28;20125;-61
2023/06/27 08:50:54;;;;;;;14.35;4.50;;;28.50;84.50;;;;;;4130464;28;20076;-61
2023/06/27 08:52:57;;;;;;;28.85;7.78;;;28.10;84.20;;;;;;4130831;28;20022;-61
2023/06/27 08:55:00;;;;;;;5.82;3.88;;;27.80;85.20;;;;;;4129576;28;20108;-61
2023/06/27 08:57:03;;;;;;;3.67;3.22;;;27.80;85.20;;;;;;4130350;28;20042;-60
2023/06/27 08:59:08;;;;;;;3.80;3.42;;;27.60;85.20;;;;;;4129955;28;20146;-63
2023/06/27 09:01:11;;;;;;;3.70;3.40;;;27.60;86.00;;;;;;4131068;28;20493;-60
2023/06/27 09:03:12;;;;;;;3.85;3.42;;;27.80;85.20;;;;;;4129557;28;20077;-59
2023/06/27 09:05:15;;;;;;;4.55;3.65;;;28.10;84.60;;;;;;4131192;28;20038;-60
2023/06/27 09:07:16;;;;;;;8.15;4.40;;;28.20;84.30;;;;;;4129525;28;20152;-60
2023/06/27 09:09:17;;;;;;;4.07;3.67;;;28.20;84.40;;;;;;4130996;28;20038;-60
2023/06/27 09:11:19;;;;;;;3.63;3.33;;;28.40;84.40;;;;;;4129419;28;20101;-61
2023/06/27 09:13:22;;;;;;;29.40;6.50;;;28.60;83.90;;;;;;4130865;28;20026;-61
2023/06/27 09:15:24;;;;;;;4.63;3.38;;;28.40;84.30;;;;;;4129782;28;20035;-62
2023/06/27 09:17:26;;;;;;;9.30;3.53;;;28.20;84.30;;;;;;4130832;28;20549;-62
2023/06/27 09:19:27;;;;;;;11.13;4.45;;;28.20;84.00;;;;;;4129517;28;20093;-61
2023/06/27 09:21:32;;;;;;;6.78;3.95;;;28.20;83.80;;;;;;4130050;28;20054;-62
2023/06/27 09:23:33;;;;;;;4.47;3.38;;;28.30;83.70;;;;;;4129678;28;20026;-60
2023/06/27 09:25:34;;;;;;;7.30;3.63;;;28.50;83.80;;;;;;4130260;28;20046;-61
2023/06/27 09:27:36;;;;;;;4.93;3.90;;;28.60;83.70;;;;;;4130074;28;20455;-63
2023/06/27 09:29:37;;;;;;;7.00;3.83;;;28.10;83.50;;;;;;4129772;28;20494;-61
2023/06/27 09:31:38;;;;;;;4.13;3.33;;;28.10;84.10;;;;;;4130088;28;20364;-60
2023/06/27 09:33:43;;;;;;;5.28;3.13;;;28.10;84.40;;;;;;4129104;28;20096;-60
2023/06/27 09:35:45;;;;;;;4.35;3.95;;;28.10;84.10;;;;;;4130306;28;20058;-61
2023/06/27 09:37:46;;;;;;;5.18;3.90;;;27.90;84.00;;;;;;4129390;28;20516;-61
2023/06/27 09:39:47;;;;;;;68.07;13.15;;;27.90;84.70;;;;;;4130257;28;20458;-60
2023/06/27 09:41:50;;;;;;;11.63;5.03;;;27.60;85.30;;;;;;4127994;28;20038;-63
2023/06/27 09:43:51;;;;;;;12.25;5.05;;;27.20;86.10;;;;;;4129357;28;20137;-62
2023/06/27 09:45:59;;;;;;;6.75;4.40;;;27.00;87.00;;;;;;4128928;28;20054;-62
2023/06/27 09:48:01;;;;;;;9.18;4.65;;;26.70;87.80;;;;;;4130475;28;20104;-64
2023/06/27 09:50:05;;;;;;;20.65;6.22;;;26.70;88.10;;;;;;4128708;28;20042;-60
2023/06/27 09:52:07;;;;;;;36.22;7.70;;;26.60;88.20;;;;;;4130086;28;20109;-60
2023/06/27 09:54:11;;;;;;;12.52;6.45;;;26.70;88.60;;;;;;4129288;28;20046;-62
2023/06/27 09:56:13;;;;;;;17.58;6.72;;;26.70;89.10;;;;;;4129692;28;20507;-62
2023/06/27 09:58:24;;;;;;;14.75;5.60;;;26.90;89.00;;;;;;4129210;28;20023;-62
2023/06/27 10:00:28;;;;;;;8.02;4.72;;;27.00;88.80;;;;;;4129669;28;20077;-61
2023/06/27 10:02:31;;;;;;;41.92;11.45;;;27.10;88.70;;;;;;4129204;28;20022;-61
2023/06/27 10:04:32;;;;;;;22.20;5.85;;;27.00;89.10;;;;;;4129593;28;20500;-61
2023/06/27 10:06:34;;;;;;;15.00;5.25;;;27.10;89.10;;;;;;4129556;28;20030;-62
2023/06/27 10:08:36;;;;;;;8.20;4.90;;;27.40;88.40;;;;;;4129263;28;20038;-61
2023/06/27 10:10:37;;;;;;;5.05;4.43;;;27.50;88.10;;;;;;4129551;28;20077;-60
2023/06/27 10:12:39;;;;;;;14.38;6.15;;;27.60;88.20;;;;;;4128577;28;20065;-59
2023/06/27 10:14:41;;;;;;;31.83;8.45;;;27.40;87.90;;;;;;4129799;28;20376;-60
2023/06/27 10:16:43;;;;;;;19.85;6.32;;;27.40;88.30;;;;;;4128152;28;20073;-62
2023/06/27 10:18:45;;;;;;;13.18;4.65;;;27.30;88.60;;;;;;4129675;28;20120;-62
2023/06/27 10:20:46;;;;;;;5.20;4.63;;;27.50;88.20;;;;;;4128573;28;20046;-62
2023/06/27 10:22:48;;;;;;;5.55;4.22;;;27.60;87.30;;;;;;4129752;28;20014;-61
2023/06/27 10:24:52;;;;;;;6.00;3.60;;;27.90;86.40;;;;;;4128574;28;20042;-61
2023/06/27 10:26:57;;;;;;;10.93;4.88;;;28.10;86.20;;;;;;4129714;28;20093;-62
2023/06/27 10:28:58;;;;;;;20.83;6.03;;;28.10;86.30;;;;;;4128599;28;20026;-61
2023/06/27 10:30:59;;;;;;;5.97;4.57;;;28.20;86.70;;;;;;4129447;28;20041;-62
2023/06/27 10:33:09;;;;;;;4.43;3.83;;;28.40;86.30;;;;;;4128408;28;20113;-61